Time;durP1;ratioP1;P1;durP2;ratioP2;P2;SDS_P1;SDS_P2;PMS_P1;PMS_P2;Temp;Humidity;BMP_temperature;BMP_pressure;BME280_temperature;BME280_humidity;BME280_pressure;Samples;Min_cycle;Max_cycle;Signal;HPM_P1;HPM_P2
2022/05/16 00:00:36;;;;;;;;;;;14.00;99.90;;;;;;5059149;28;20114;-85
2022/05/16 00:03:04;;;;;;;3.90;2.47;;;14.00;99.90;;;;;;5053973;28;19921;-85
2022/05/16 00:05:30;;;;;;;4.88;3.03;;;13.90;99.90;;;;;;5063199;28;20049;-85
2022/05/16 00:07:55;;;;;;;3.83;2.57;;;13.90;99.90;;;;;;5034368;28;20045;-85
2022/05/16 00:10:22;;;;;;;6.30;3.43;;;13.90;99.90;;;;;;5051327;28;20081;-85
2022/05/16 00:12:48;;;;;;;3.70;3.13;;;13.80;99.90;;;;;;5048099;28;20044;-85
2022/05/16 00:15:16;;;;;;;3.88;2.88;;;13.80;99.90;;;;;;5018677;28;20048;-85
2022/05/16 00:17:42;;;;;;;7.78;3.75;;;13.80;99.90;;;;;;5051935;28;20128;-87
2022/05/16 00:20:09;;;;;;;5.07;2.67;;;13.80;99.90;;;;;;5050860;28;20128;-85
2022/05/16 00:22:35;;;;;;;5.88;3.33;;;13.70;99.90;;;;;;5060075;28;20052;-85
2022/05/16 00:25:04;;;;;;;4.15;2.78;;;13.70;99.90;;;;;;5073403;28;20052;-85
2022/05/16 00:27:34;;;;;;;5.78;2.38;;;13.70;99.90;;;;;;5064045;28;20037;-85
2022/05/16 00:30:04;;;;;;;4.93;2.58;;;13.70;99.90;;;;;;5054481;28;20049;-84
2022/05/16 00:32:29;;;;;;;4.85;2.80;;;13.60;99.90;;;;;;5063692;28;20086;-85
2022/05/16 00:34:55;;;;;;;5.63;2.97;;;13.60;99.90;;;;;;5073890;28;20041;-84
2022/05/16 00:37:21;;;;;;;3.97;2.97;;;13.60;99.90;;;;;;5065747;28;20091;-85
2022/05/16 00:39:46;;;;;;;7.20;2.67;;;13.60;99.90;;;;;;5048109;28;20040;-85
2022/05/16 00:42:13;;;;;;;4.27;2.97;;;13.60;99.90;;;;;;5054372;28;20449;-85
2022/05/16 00:44:39;;;;;;;5.47;3.00;;;13.60;99.90;;;;;;5038033;28;20087;-85
2022/05/16 00:47:05;;;;;;;4.10;2.58;;;13.50;99.90;;;;;;5058319;28;20032;-85
2022/05/16 00:49:40;;;;;;;4.00;2.22;;;13.50;99.90;;;;;;5040523;28;20041;-85
2022/05/16 00:52:14;;;;;;;4.70;3.03;;;13.50;99.90;;;;;;5074031;28;20095;-85
2022/05/16 00:54:58;;;;;;;3.55;2.78;;;13.40;99.90;;;;;;5071027;28;20076;-85
2022/05/16 00:57:31;;;;;;;4.40;2.40;;;13.40;99.90;;;;;;5053995;28;20503;-85
2022/05/16 01:00:07;;;;;;;4.35;2.05;;;13.40;99.90;;;;;;5050031;28;20406;-85
2022/05/16 01:05:19;;;;;;;5.13;2.42;;;13.40;99.90;;;;;;5053867;28;20136;-85
2022/05/16 01:07:45;;;;;;;4.60;2.40;;;13.40;99.90;;;;;;5038995;28;20131;-85
2022/05/16 01:10:21;;;;;;;3.17;2.72;;;13.40;99.90;;;;;;5070116;28;20056;-85
2022/05/16 01:12:50;;;;;;;4.13;2.40;;;13.30;99.90;;;;;;5054733;28;20052;-89
2022/05/16 01:15:39;;;;;;;8.13;2.60;;;13.40;99.90;;;;;;5069353;28;20040;-87
2022/05/16 01:18:07;;;;;;;6.65;2.28;;;13.30;99.90;;;;;;5022543;28;20086;-85
2022/05/16 01:20:45;;;;;;;4.40;2.17;;;13.30;99.90;;;;;;5036609;28;20041;-85
2022/05/16 01:23:14;;;;;;;3.15;2.80;;;13.30;99.90;;;;;;5058976;28;20052;-85
2022/05/16 01:25:40;;;;;;;4.70;2.67;;;13.70;99.90;;;;;;5073171;28;20052;-85
2022/05/16 01:28:05;;;;;;;1.87;1.77;;;13.20;99.90;;;;;;5044953;28;20179;-85
2022/05/16 01:30:47;;;;;;;3.53;1.97;;;13.20;99.90;;;;;;5039044;28;20045;-85
2022/05/16 01:33:23;;;;;;;3.30;2.30;;;13.20;99.90;;;;;;5067624;28;20049;-85
2022/05/16 01:35:53;;;;;;;2.75;2.22;;;13.20;99.90;;;;;;5035573;28;20510;-86
2022/05/16 01:38:22;;;;;;;6.03;2.10;;;13.20;99.90;;;;;;5033330;28;20084;-85
2022/05/16 01:40:57;;;;;;;3.85;2.15;;;13.10;99.90;;;;;;5046254;28;20095;-85
2022/05/16 01:43:27;;;;;;;3.58;2.22;;;13.10;99.90;;;;;;5032900;28;20132;-85
2022/05/16 01:45:53;;;;;;;4.43;2.60;;;13.10;99.90;;;;;;5073860;28;20119;-91
2022/05/16 01:48:19;;;;;;;2.67;2.25;;;13.10;99.90;;;;;;5052736;28;20128;-84
2022/05/16 01:50:47;;;;;;;3.35;2.05;;;13.00;99.90;;;;;;5053275;28;20049;-84
2022/05/16 01:53:13;;;;;;;2.58;1.65;;;13.10;99.90;;;;;;5051973;28;20041;-85
2022/05/16 01:55:39;;;;;;;4.25;2.55;;;13.00;99.90;;;;;;5040940;28;20098;-85
2022/05/16 01:58:05;;;;;;;6.10;2.20;;;13.00;99.90;;;;;;5068984;28;20049;-85
2022/05/16 02:00:32;;;;;;;3.53;1.92;;;13.00;99.90;;;;;;5036384;28;20402;-84
2022/05/16 02:02:59;;;;;;;2.55;1.73;;;13.00;99.90;;;;;;5072146;28;20055;-85
2022/05/16 02:05:26;;;;;;;2.65;2.38;;;13.10;99.90;;;;;;5054750;28;20052;-85
2022/05/16 02:07:52;;;;;;;;;;;13.00;99.90;;;;;;5053031;28;20099;-84
2022/05/16 02:10:21;;;;;;;4.85;2.22;;;13.00;99.90;;;;;;5049838;28;19920;-85
2022/05/16 02:12:49;;;;;;;4.47;2.85;;;13.00;99.90;;;;;;5060734;28;20439;-84
2022/05/16 02:15:18;;;;;;;4.05;1.90;;;12.90;99.90;;;;;;5052969;28;20044;-85
2022/05/16 02:17:43;;;;;;;3.35;2.50;;;12.90;99.90;;;;;;5052907;28;20048;-85
2022/05/16 02:20:09;;;;;;;3.37;2.17;;;12.90;99.90;;;;;;5051895;28;20395;-84
2022/05/16 02:25:20;;;;;;;4.68;2.25;;;12.90;99.90;;;;;;5056749;28;20052;-85
2022/05/16 02:27:47;;;;;;;2.33;1.80;;;12.80;99.90;;;;;;5062031;28;20041;-85
2022/05/16 02:30:13;;;;;;;;;;;12.80;99.90;;;;;;5015342;28;20056;-85
2022/05/16 02:32:39;;;;;;;3.00;1.70;;;12.80;99.90;;;;;;5025645;28;20002;-85
2022/05/16 02:35:05;;;;;;;2.30;1.63;;;12.70;99.90;;;;;;5034799;28;20081;-85
2022/05/16 02:37:31;;;;;;;3.17;2.03;;;12.80;99.90;;;;;;5059267;28;20410;-85
2022/05/16 02:39:57;;;;;;;3.00;2.13;;;12.70;99.90;;;;;;5054559;28;20047;-85
2022/05/16 02:42:22;;;;;;;3.13;1.70;;;12.70;99.90;;;;;;5045031;28;20036;-84
2022/05/16 02:44:52;;;;;;;2.25;1.52;;;12.70;99.90;;;;;;5071902;28;20047;-85
2022/05/16 02:47:20;;;;;;;2.05;1.55;;;12.70;99.90;;;;;;5032672;28;20052;-84
2022/05/16 02:49:45;;;;;;;2.28;2.08;;;12.70;99.90;;;;;;5035970;28;20055;-84
2022/05/16 02:52:11;;;;;;;2.47;1.50;;;12.70;99.90;;;;;;5065016;28;20399;-84
2022/05/16 02:54:37;;;;;;;4.07;2.33;;;12.70;99.90;;;;;;5071239;28;20051;-84
2022/05/16 02:57:04;;;;;;;3.42;1.95;;;12.80;99.90;;;;;;5069659;28;20287;-85
2022/05/16 02:59:34;;;;;;;3.03;1.80;;;12.60;99.90;;;;;;5029777;28;20045;-85
2022/05/16 03:02:01;;;;;;;2.03;1.63;;;12.60;99.90;;;;;;5031815;28;20080;-84
2022/05/16 03:04:27;;;;;;;5.00;1.75;;;12.60;99.90;;;;;;5036692;28;20040;-85
2022/05/16 03:06:54;;;;;;;2.03;1.83;;;12.60;99.90;;;;;;5069356;28;20517;-84
2022/05/16 03:09:21;;;;;;;2.28;1.55;;;12.60;99.90;;;;;;5034460;28;20055;-85
2022/05/16 03:11:47;;;;;;;2.38;1.40;;;12.60;99.90;;;;;;5052531;28;20384;-84
2022/05/16 03:14:12;;;;;;;2.80;1.88;;;12.60;99.90;;;;;;5031830;28;20081;-85
2022/05/16 03:16:39;;;;;;;2.60;1.90;;;12.50;99.90;;;;;;5071835;28;20048;-84
2022/05/16 03:19:05;;;;;;;7.15;1.33;;;12.50;99.90;;;;;;5020065;28;20075;-90
2022/05/16 03:21:31;;;;;;;1.85;1.48;;;12.50;99.90;;;;;;5054298;28;20053;-84
2022/05/16 03:23:58;;;;;;;3.38;2.00;;;12.50;99.90;;;;;;5033407;28;20052;-85
2022/05/16 03:26:27;;;;;;;3.72;2.03;;;12.40;99.90;;;;;;5031031;28;20050;-85
2022/05/16 03:28:53;;;;;;;2.08;1.92;;;12.40;99.90;;;;;;5038830;28;20170;-84
2022/05/16 03:31:20;;;;;;;2.80;1.85;;;12.40;99.90;;;;;;5055336;28;20451;-85
2022/05/16 03:33:46;;;;;;;1.88;1.13;;;12.30;99.90;;;;;;5047969;28;20400;-84
2022/05/16 03:36:12;;;;;;;4.65;1.77;;;12.30;99.90;;;;;;5028655;28;20052;-85
2022/05/16 03:41:25;;;;;;;1.20;0.97;;;12.30;99.90;;;;;;5070905;28;20287;-85
2022/05/16 03:43:52;;;;;;;1.50;1.40;;;12.40;99.90;;;;;;5061704;28;20071;-84
2022/05/16 03:46:18;;;;;;;1.90;1.40;;;12.30;99.90;;;;;;5060918;28;20048;-85
2022/05/16 03:48:44;;;;;;;1.93;1.53;;;12.30;99.90;;;;;;5050220;28;20052;-85
2022/05/16 03:51:12;;;;;;;2.13;1.98;;;12.30;99.90;;;;;;5069729;28;20036;-85
2022/05/16 03:53:46;;;;;;;1.58;1.42;;;12.30;99.90;;;;;;5070639;28;20045;-84
2022/05/16 03:56:16;;;;;;;4.80;1.60;;;12.20;99.90;;;;;;5054944;28;20564;-85
2022/05/16 03:58:42;;;;;;;2.88;1.90;;;12.20;99.90;;;;;;5068381;28;20054;-85
2022/05/16 04:01:08;;;;;;;1.20;1.13;;;12.20;99.90;;;;;;5057695;28;20399;-88
2022/05/16 04:03:34;;;;;;;1.30;1.00;;;12.20;99.90;;;;;;5058321;28;20131;-85
2022/05/16 04:06:00;;;;;;;3.55;1.80;;;12.20;99.90;;;;;;5047639;28;20045;-85
2022/05/16 04:08:26;;;;;;;5.10;1.57;;;12.20;99.90;;;;;;5071163;28;20102;-85
2022/05/16 04:10:52;;;;;;;4.65;1.38;;;12.20;99.90;;;;;;5070710;28;20546;-84
2022/05/16 04:13:18;;;;;;;6.33;2.03;;;12.20;99.90;;;;;;5048433;28;20131;-85
2022/05/16 04:15:46;;;;;;;2.10;1.20;;;12.20;99.90;;;;;;5050406;28;20116;-85
2022/05/16 04:18:11;;;;;;;1.45;1.35;;;12.20;99.90;;;;;;5034672;28;20053;-89
2022/05/16 04:20:37;;;;;;;1.40;1.30;;;12.20;99.90;;;;;;5019156;28;20099;-84
2022/05/16 04:23:03;;;;;;;2.57;1.80;;;12.20;99.90;;;;;;5024969;28;20059;-84
2022/05/16 04:25:34;;;;;;;3.03;1.30;;;12.30;99.90;;;;;;5073687;28;20032;-85
2022/05/16 04:28:02;;;;;;;4.50;2.15;;;12.20;99.90;;;;;;5058071;28;20325;-86
2022/05/16 04:30:27;;;;;;;4.45;1.48;;;12.30;99.90;;;;;;5060585;28;20052;-85
2022/05/16 04:32:53;;;;;;;4.03;1.70;;;12.30;99.90;;;;;;5035664;28;20041;-84
2022/05/16 04:35:19;;;;;;;2.30;1.70;;;12.30;99.90;;;;;;5033779;28;20091;-85
2022/05/16 04:37:45;;;;;;;3.00;1.52;;;12.30;99.90;;;;;;5074445;28;20044;-85
2022/05/16 04:40:14;;;;;;;2.43;1.57;;;12.30;99.90;;;;;;5057522;28;20043;-84
2022/05/16 04:42:41;;;;;;;2.85;1.40;;;12.30;99.90;;;;;;5070463;28;20052;-84
2022/05/16 04:45:12;;;;;;;3.17;1.77;;;12.30;99.90;;;;;;5053733;28;20095;-85
2022/05/16 04:47:38;;;;;;;6.97;1.70;;;12.30;99.90;;;;;;5042857;28;20047;-85
2022/05/16 04:50:08;;;;;;;2.87;1.73;;;12.30;99.90;;;;;;5054933;28;20053;-84
2022/05/16 04:52:34;;;;;;;2.22;1.67;;;12.40;99.90;;;;;;5059793;28;20148;-85
2022/05/16 04:55:00;;;;;;;4.93;1.30;;;12.40;99.90;;;;;;5069311;28;20123;-85
2022/05/16 04:57:27;;;;;;;3.72;2.00;;;12.40;99.90;;;;;;5064765;28;20311;-85
2022/05/16 04:59:53;;;;;;;3.38;1.70;;;12.40;99.90;;;;;;5018321;28;20124;-85
2022/05/16 05:02:18;;;;;;;3.87;1.50;;;12.90;99.90;;;;;;5073765;28;20079;-85
2022/05/16 05:04:45;;;;;;;1.17;1.03;;;12.40;99.90;;;;;;5039022;28;20052;-84
2022/05/16 05:07:12;;;;;;;4.35;1.50;;;12.50;99.90;;;;;;5074046;28;20051;-84
2022/05/16 05:15:11;;;;;;;3.88;1.60;;;12.60;99.90;;;;;;5060586;28;20509;-85
2022/05/16 05:17:37;;;;;;;3.97;1.45;;;12.70;99.90;;;;;;5053227;28;20053;-84
2022/05/16 05:20:04;;;;;;;3.08;1.70;;;13.00;99.90;;;;;;5057420;28;20045;-84
2022/05/16 05:22:30;;;;;;;2.13;1.90;;;13.40;99.90;;;;;;5052742;28;20045;-85
2022/05/16 05:24:56;;;;;;;2.30;1.60;;;13.80;99.90;;;;;;5042142;28;20047;-85
2022/05/16 05:27:21;;;;;;;5.22;1.67;;;14.20;99.90;;;;;;5056474;28;20041;-85
2022/05/16 05:29:48;;;;;;;3.43;1.50;;;14.50;99.90;;;;;;5067028;28;20071;-85
2022/05/16 05:32:15;;;;;;;2.88;1.73;;;14.90;99.90;;;;;;5053104;28;20068;-85
2022/05/16 05:34:41;;;;;;;3.50;1.52;;;15.30;99.90;;;;;;5050342;28;20069;-86
2022/05/16 05:37:07;;;;;;;2.40;1.77;;;15.60;99.90;;;;;;5059713;28;20058;-85
2022/05/16 05:39:34;;;;;;;3.60;1.80;;;15.50;99.90;;;;;;5056180;28;20040;-85
2022/05/16 05:42:00;;;;;;;4.07;1.63;;;15.20;99.90;;;;;;5069243;28;20491;-84
2022/05/16 05:44:26;;;;;;;1.98;1.40;;;15.00;99.90;;;;;;5035738;28;20056;-84
2022/05/16 05:46:51;;;;;;;3.67;1.63;;;14.80;99.90;;;;;;5055849;28;20045;-85
2022/05/16 05:49:19;;;;;;;4.33;1.87;;;14.60;99.90;;;;;;5057982;28;20291;-83
2022/05/16 05:51:45;;;;;;;3.05;2.00;;;14.60;99.90;;;;;;5072550;28;20048;-85
2022/05/16 05:54:11;;;;;;;2.67;1.58;;;14.80;99.90;;;;;;5055740;28;20045;-84
2022/05/16 05:56:37;;;;;;;2.55;1.83;;;14.80;99.90;;;;;;5068155;28;20490;-85
2022/05/16 05:59:03;;;;;;;3.38;1.80;;;15.00;99.90;;;;;;5036103;28;20049;-85
2022/05/16 06:01:29;;;;;;;2.85;1.92;;;15.30;99.90;;;;;;5036111;28;20510;-83
2022/05/16 06:03:55;;;;;;;3.90;1.88;;;15.40;99.90;;;;;;5040990;28;20051;-85
2022/05/16 06:06:21;;;;;;;3.35;1.55;;;15.60;99.90;;;;;;5066585;28;20499;-84
2022/05/16 06:08:47;;;;;;;4.93;2.22;;;15.80;99.90;;;;;;5035594;28;20051;-84
2022/05/16 06:11:13;;;;;;;2.60;2.05;;;15.80;99.90;;;;;;5036977;28;20124;-85
2022/05/16 06:13:39;;;;;;;4.43;1.70;;;15.70;99.90;;;;;;5053034;28;20133;-85
2022/05/16 06:16:06;;;;;;;3.87;1.67;;;15.70;99.90;;;;;;5052343;28;20403;-85
2022/05/16 06:18:32;;;;;;;3.47;2.17;;;15.70;99.90;;;;;;5041607;28;20370;-85
2022/05/16 06:20:58;;;;;;;1.95;1.80;;;15.60;99.90;;;;;;5034297;28;20388;-84
2022/05/16 06:23:24;;;;;;;7.53;1.95;;;15.50;99.90;;;;;;5032448;28;20056;-85
2022/05/16 06:25:49;;;;;;;4.40;2.83;;;15.40;99.90;;;;;;5062859;28;20070;-85
2022/05/16 06:28:19;;;;;;;3.40;1.97;;;15.30;99.90;;;;;;5045126;28;20454;-85
2022/05/16 06:30:50;;;;;;;1.90;1.70;;;15.30;99.90;;;;;;5062097;28;20049;-86
2022/05/16 06:33:18;;;;;;;2.78;1.88;;;15.50;99.90;;;;;;5059711;28;20271;-85
2022/05/16 06:35:43;;;;;;;3.05;1.83;;;15.70;99.90;;;;;;5071416;28;20040;-84
2022/05/16 06:38:15;;;;;;;3.85;2.30;;;16.00;99.90;;;;;;5071918;28;20052;-84
2022/05/16 06:40:42;;;;;;;3.60;2.00;;;16.40;99.90;;;;;;5052980;28;20048;-85
2022/05/16 06:43:09;;;;;;;2.78;1.67;;;16.60;99.90;;;;;;5071400;28;20044;-85
2022/05/16 06:45:35;;;;;;;2.75;1.50;;;17.00;99.90;;;;;;5071521;28;20056;-84
2022/05/16 06:48:02;;;;;;;2.45;2.15;;;17.30;99.90;;;;;;5071302;28;20076;-84
2022/05/16 06:50:30;;;;;;;2.97;1.83;;;17.50;99.90;;;;;;5039567;28;20044;-84
2022/05/16 06:52:56;;;;;;;4.57;1.90;;;17.90;99.90;;;;;;5071666;28;20056;-84
2022/05/16 06:55:22;;;;;;;1.85;1.73;;;18.20;99.90;;;;;;5037604;28;20474;-84
2022/05/16 06:57:48;;;;;;;2.88;1.55;;;18.50;99.90;;;;;;5071198;28;20053;-84
2022/05/16 07:00:15;;;;;;;2.30;2.05;;;18.90;99.90;;;;;;5068233;28;20049;-86
2022/05/16 07:02:41;;;;;;;1.80;1.70;;;19.30;99.90;;;;;;5051489;28;20190;-85
2022/05/16 07:05:07;;;;;;;5.25;2.65;;;19.50;99.90;;;;;;5032696;28;20132;-84
2022/05/16 07:07:36;;;;;;;5.38;2.00;;;19.80;99.90;;;;;;5063262;28;20510;-89
2022/05/16 07:10:03;;;;;;;2.60;1.92;;;20.00;99.90;;;;;;5056889;28;20080;-85
2022/05/16 07:12:29;;;;;;;4.18;2.53;;;20.10;99.90;;;;;;5033318;28;20384;-86
2022/05/16 07:14:57;;;;;;;3.28;1.98;;;20.10;99.90;;;;;;5053409;28;20051;-87
2022/05/16 07:17:23;;;;;;;2.70;1.50;;;20.20;99.90;;;;;;5036147;28;20045;-85
2022/05/16 07:19:49;;;;;;;2.78;1.88;;;20.30;99.90;;;;;;5068948;28;20380;-90
2022/05/16 07:22:19;;;;;;;3.35;1.55;;;20.50;99.90;;;;;;5065889;28;20068;-86
2022/05/16 07:24:45;;;;;;;6.93;2.03;;;20.70;99.00;;;;;;5037850;28;20036;-86
2022/05/16 07:29:58;;;;;;;5.40;2.15;;;20.80;98.00;;;;;;5050992;28;20049;-87
2022/05/16 07:32:36;;;;;;;2.88;1.63;;;20.90;97.10;;;;;;5052408;28;20048;-86
2022/05/16 07:35:04;;;;;;;5.50;2.35;;;20.90;96.40;;;;;;5034552;28;20048;-87
2022/05/16 07:37:31;;;;;;;5.47;2.45;;;20.90;96.40;;;;;;5042543;28;20044;-86
2022/05/16 07:39:58;;;;;;;5.50;2.70;;;20.90;96.30;;;;;;5070188;28;20071;-87
2022/05/16 07:42:25;;;;;;;5.03;1.65;;;21.10;96.30;;;;;;5059208;28;20033;-86
2022/05/16 07:44:50;;;;;;;3.50;2.20;;;21.20;95.50;;;;;;5054827;28;20068;-87
2022/05/16 07:47:17;;;;;;;2.10;1.88;;;21.30;95.40;;;;;;5056469;28;20435;-85
2022/05/16 07:49:43;;;;;;;3.63;2.28;;;21.50;94.90;;;;;;5074854;28;20044;-85
2022/05/16 07:52:11;;;;;;;5.95;2.00;;;21.50;94.20;;;;;;5074542;28;20052;-85
2022/05/16 07:54:37;;;;;;;4.88;2.70;;;21.50;93.60;;;;;;5064650;28;20053;-90
2022/05/16 07:57:04;;;;;;;4.05;1.90;;;21.70;93.70;;;;;;5039068;28;20106;-85
2022/05/16 07:59:30;;;;;;;1.75;1.48;;;21.80;93.30;;;;;;5061653;28;20088;-85
2022/05/16 08:01:59;;;;;;;2.95;2.08;;;21.80;92.80;;;;;;5038076;28;20052;-86
2022/05/16 08:04:24;;;;;;;3.05;2.45;;;21.70;92.40;;;;;;5072245;28;20078;-85
2022/05/16 08:06:50;;;;;;;;;;;21.70;92.30;;;;;;5072276;28;20086;-85
2022/05/16 08:11:59;;;;;;;3.63;2.03;;;21.80;92.40;;;;;;5072513;28;20044;-85
2022/05/16 08:14:25;;;;;;;3.20;2.78;;;22.00;92.00;;;;;;5058129;28;20044;-86
2022/05/16 08:16:51;;;;;;;;;;;22.30;91.60;;;;;;5073784;28;20174;-86
2022/05/16 08:19:17;;;;;;;3.75;1.40;;;22.50;90.30;;;;;;5071678;28;19921;-86
2022/05/16 08:21:43;;;;;;;5.18;1.95;;;22.60;91.30;;;;;;5070491;28;20418;-87
2022/05/16 08:24:11;;;;;;;4.97;1.90;;;22.70;90.70;;;;;;5041236;28;20063;-87
2022/05/16 08:26:38;;;;;;;4.18;2.50;;;22.90;90.50;;;;;;5056485;28;20057;-87
2022/05/16 08:29:04;;;;;;;2.80;1.60;;;23.10;90.00;;;;;;5055082;28;20084;-87
2022/05/16 08:31:30;;;;;;;4.25;1.55;;;23.30;89.30;;;;;;5056547;28;20040;-87
2022/05/16 08:33:57;;;;;;;3.22;2.17;;;23.40;88.20;;;;;;5055650;28;20435;-88
2022/05/16 08:41:57;;;;;;;2.13;1.85;;;23.50;86.30;;;;;;5053579;28;20076;-87
2022/05/16 08:44:45;;;;;;;5.85;2.13;;;23.70;86.10;;;;;;5060502;28;20482;-87
2022/05/16 08:47:32;;;;;;;4.20;1.90;;;23.90;85.50;;;;;;5061042;28;20438;-89
2022/05/16 08:50:01;;;;;;;;;;;24.20;83.60;;;;;;5068210;28;20052;-86
2022/05/16 08:52:35;;;;;;;2.25;1.52;;;24.30;82.10;;;;;;5055303;28;19924;-86
2022/05/16 08:55:28;;;;;;;3.38;2.15;;;24.30;83.40;;;;;;5053383;28;20056;-86
2022/05/16 08:58:11;;;;;;;1.85;1.70;;;24.30;83.30;;;;;;5069549;28;20106;-86
2022/05/16 09:00:48;;;;;;;4.10;1.77;;;24.40;81.30;;;;;;5054226;28;20060;-86
2022/05/16 09:03:26;;;;;;;3.78;2.05;;;24.50;81.70;;;;;;5049371;28;20109;-85
2022/05/16 09:06:02;;;;;;;5.43;1.70;;;24.50;80.00;;;;;;5042089;28;20502;-85
2022/05/16 09:08:31;;;;;;;1.92;1.63;;;24.50;79.80;;;;;;5050069;28;20044;-86
2022/05/16 09:11:32;;;;;;;2.70;2.17;;;24.30;79.60;;;;;;5065430;28;20503;-89
2022/05/16 09:14:06;;;;;;;2.15;1.70;;;24.40;78.10;;;;;;5051191;28;20132;-90
2022/05/16 09:16:41;;;;;;;4.82;1.90;;;24.50;78.80;;;;;;5054113;28;20053;-90
2022/05/16 09:19:22;;;;;;;5.20;2.03;;;24.70;77.90;;;;;;5037129;28;20048;-90
2022/05/16 09:22:08;;;;;;;1.88;1.73;;;25.00;77.70;;;;;;5036946;28;20487;-90
2022/05/16 09:24:55;;;;;;;3.13;1.83;;;25.20;77.10;;;;;;5053995;28;20376;-90
2022/05/16 09:30:28;;;;;;;4.43;1.90;;;24.60;74.50;;;;;;5053852;28;20061;-91
2022/05/16 09:33:06;;;;;;;3.15;2.08;;;25.70;75.40;;;;;;5053658;28;20037;-90
2022/05/16 09:35:49;;;;;;;3.42;2.20;;;25.80;74.40;;;;;;5054075;28;20052;-91
2022/05/16 09:38:18;;;;;;;6.25;1.88;;;25.80;73.60;;;;;;5036438;28;20103;-91
2022/05/16 09:40:59;;;;;;;2.38;1.77;;;25.80;74.30;;;;;;5053289;28;20037;-91
2022/05/16 09:43:30;;;;;;;3.30;1.80;;;25.80;72.80;;;;;;5053515;28;20049;-89
2022/05/16 09:46:05;;;;;;;5.18;1.95;;;25.90;73.00;;;;;;5039438;28;20167;-87
2022/05/16 09:48:31;;;;;;;6.37;2.77;;;25.90;72.60;;;;;;5054181;28;20492;-86
2022/05/16 09:50:59;;;;;;;2.65;1.63;;;25.80;72.90;;;;;;5055119;28;20124;-88
2022/05/16 09:53:31;;;;;;;5.57;1.80;;;25.70;71.60;;;;;;5060188;28;20041;-89
2022/05/16 09:56:03;;;;;;;3.50;2.83;;;25.60;71.10;;;;;;5061805;28;20127;-90
2022/05/16 09:58:36;;;;;;;3.17;1.90;;;25.60;71.80;;;;;;5064273;28;20079;-87
2022/05/16 10:01:06;;;;;;;3.58;1.70;;;25.70;71.60;;;;;;5052194;28;20055;-87
2022/05/16 10:03:43;;;;;;;3.25;1.88;;;26.00;71.20;;;;;;5052661;28;20055;-87
2022/05/16 10:06:30;;;;;;;1.63;1.48;;;26.20;70.20;;;;;;5051828;28;20052;-87
2022/05/16 10:09:01;;;;;;;;;;;26.40;71.20;;;;;;5052086;28;20051;-88
2022/05/16 10:11:29;;;;;;;2.92;2.05;;;26.50;69.50;;;;;;5053508;28;19932;-88
2022/05/16 10:13:55;;;;;;;4.82;1.88;;;26.70;71.00;;;;;;5065842;28;20040;-88
2022/05/16 10:16:24;;;;;;;3.67;2.35;;;27.10;70.80;;;;;;5066960;28;20048;-88
2022/05/16 10:18:57;;;;;;;4.03;2.15;;;27.20;69.30;;;;;;5038233;28;20049;-93
2022/05/16 10:21:32;;;;;;;5.68;1.80;;;27.20;67.60;;;;;;5071776;28;20099;-93
2022/05/16 10:23:59;;;;;;;8.50;2.30;;;27.10;67.50;;;;;;5057379;28;20506;-93
2022/05/16 10:26:30;;;;;;;3.78;1.88;;;27.10;68.40;;;;;;5065831;28;20083;-95
2022/05/16 10:29:31;;;;;;;4.80;1.60;;;27.30;67.30;;;;;;5036732;28;20068;-94
2022/05/16 10:35:28;;;;;;;3.53;1.83;;;27.70;65.80;;;;;;5013724;28;20050;-95
2022/05/16 10:37:57;;;;;;;2.47;1.67;;;27.70;65.60;;;;;;5002459;28;20609;-96
2022/05/16 10:40:40;;;;;;;4.38;2.20;;;27.90;66.00;;;;;;5039420;28;20064;-94
2022/05/16 10:43:25;;;;;;;10.65;2.72;;;27.90;64.20;;;;;;5062854;28;20076;-88
2022/05/16 10:45:57;;;;;;;5.20;1.90;;;27.70;64.60;;;;;;5062030;28;20128;-94
2022/05/16 10:48:46;;;;;;;4.32;1.98;;;27.50;64.70;;;;;;5043215;28;20114;-92
2022/05/16 10:51:24;;;;;;;1.85;1.50;;;27.30;64.10;;;;;;5053538;28;20056;-91
2022/05/16 10:53:55;;;;;;;2.85;2.20;;;27.20;65.10;;;;;;5053674;28;20056;-91
2022/05/16 10:56:52;;;;;;;2.70;2.00;;;27.20;65.80;;;;;;5058883;28;20597;-91
2022/05/16 10:59:41;;;;;;;3.08;2.33;;;27.10;63.80;;;;;;5056918;28;20048;-91
2022/05/16 11:02:34;;;;;;;7.47;2.20;;;27.00;64.40;;;;;;5067616;28;20095;-91
2022/05/16 11:05:18;;;;;;;2.97;2.28;;;26.80;64.40;;;;;;5051011;28;20052;-91
2022/05/16 11:08:04;;;;;;;7.15;2.50;;;26.70;64.60;;;;;;5034958;28;20053;-96
2022/05/16 11:10:37;;;;;;;2.90;2.10;;;26.50;65.30;;;;;;5041023;28;20102;-90
2022/05/16 11:13:39;;;;;;;2.40;1.75;;;26.30;65.20;;;;;;5059625;28;20048;-93
2022/05/16 11:16:08;;;;;;;2.72;1.70;;;26.20;65.40;;;;;;5065917;28;20036;-91
2022/05/16 11:18:41;;;;;;;3.72;2.40;;;26.00;65.70;;;;;;5062291;28;20047;-91
2022/05/16 11:21:12;;;;;;;3.35;2.38;;;25.90;66.30;;;;;;5066673;28;20123;-91
2022/05/16 11:23:55;;;;;;;2.90;1.80;;;25.80;66.30;;;;;;5043806;28;20180;-91
2022/05/16 11:26:49;;;;;;;7.28;2.75;;;25.70;66.70;;;;;;5063104;28;20049;-91
2022/05/16 11:29:38;;;;;;;3.90;2.28;;;25.60;68.60;;;;;;5061407;28;20063;-89
2022/05/16 11:32:12;;;;;;;2.63;2.00;;;25.40;69.60;;;;;;5065044;28;20056;-91
2022/05/16 11:35:00;;;;;;;2.15;1.92;;;25.20;73.20;;;;;;5061760;28;20045;-92
2022/05/16 11:38:03;;;;;;;5.00;2.38;;;25.00;77.90;;;;;;5037783;28;20041;-87
2022/05/16 11:40:32;;;;;;;4.95;2.60;;;24.70;78.50;;;;;;5057658;28;20056;-87
2022/05/16 11:43:10;;;;;;;5.40;2.30;;;24.50;80.40;;;;;;5051335;28;20060;-87
2022/05/16 11:46:20;;;;;;;3.83;3.05;;;24.30;81.70;;;;;;5054391;28;20412;-87
2022/05/16 11:48:54;;;;;;;6.43;2.63;;;24.10;86.20;;;;;;5066119;28;20051;-88
2022/05/16 11:51:43;;;;;;;7.22;2.80;;;23.80;86.10;;;;;;5056984;28;20108;-89
2022/05/16 11:54:12;;;;;;;3.20;2.15;;;23.60;88.60;;;;;;5056674;28;20059;-89
2022/05/16 12:02:34;;;;;;;8.30;3.40;;;23.10;91.60;;;;;;5042924;28;20103;-88
2022/05/16 12:05:29;;;;;;;5.05;2.33;;;23.20;93.60;;;;;;5052295;28;20499;-89
2022/05/16 12:08:33;;;;;;;6.88;3.13;;;23.20;93.70;;;;;;5050918;28;20056;-88
2022/05/16 12:11:04;;;;;;;4.65;3.85;;;23.20;94.20;;;;;;5053560;28;20056;-89
2022/05/16 12:13:34;;;;;;;5.88;2.53;;;23.30;94.50;;;;;;5051175;28;20167;-88
2022/05/16 12:16:12;;;;;;;3.05;2.80;;;23.40;95.00;;;;;;5038898;28;20117;-89
2022/05/16 12:18:39;;;;;;;5.63;3.15;;;23.50;96.20;;;;;;5052909;28;20098;-88
2022/05/16 12:21:09;;;;;;;7.05;3.28;;;23.50;94.60;;;;;;5059556;28;20056;-88
2022/05/16 12:23:47;;;;;;;3.45;2.88;;;23.60;94.10;;;;;;5055537;28;20060;-88
2022/05/16 12:26:34;;;;;;;5.47;2.42;;;23.60;94.70;;;;;;5080035;28;20075;-89
2022/05/16 12:29:09;;;;;;;4.82;3.40;;;23.90;94.60;;;;;;5056079;28;20416;-90
2022/05/16 12:31:51;;;;;;;2.90;2.22;;;23.60;94.30;;;;;;5063897;28;20170;-92
2022/05/16 12:34:29;;;;;;;3.63;2.30;;;23.70;93.60;;;;;;5034236;28;20411;-92
2022/05/16 12:37:00;;;;;;;4.93;2.55;;;23.70;94.00;;;;;;5034794;28;20136;-92
2022/05/16 12:39:53;;;;;;;5.63;2.58;;;23.80;93.60;;;;;;5034395;28;20085;-92
2022/05/16 12:42:46;;;;;;;6.97;3.17;;;23.70;93.50;;;;;;5035317;28;20522;-92
2022/05/16 12:45:47;;;;;;;3.38;2.45;;;23.80;93.50;;;;;;5035357;28;20057;-92
2022/05/16 12:48:41;;;;;;;8.80;3.33;;;23.80;93.80;;;;;;5034438;28;20567;-91
2022/05/16 12:51:22;;;;;;;2.47;2.28;;;23.90;93.70;;;;;;5034448;28;20124;-91
2022/05/16 12:54:08;;;;;;;7.57;3.13;;;24.10;93.20;;;;;;5034414;28;20045;-91
2022/05/16 12:56:41;;;;;;;2.88;2.42;;;24.30;92.50;;;;;;5034024;28;20341;-93
2022/05/16 12:59:47;;;;;;;5.57;3.30;;;24.50;92.00;;;;;;5052195;28;20053;-87
2022/05/16 13:02:26;;;;;;;3.20;2.58;;;24.70;90.70;;;;;;5062421;28;20406;-87
2022/05/16 13:05:13;;;;;;;6.10;2.75;;;24.90;90.70;;;;;;5040631;28;20045;-93
2022/05/16 13:07:51;;;;;;;;;;;25.00;90.00;;;;;;5064275;28;20525;-92
2022/05/16 13:10:35;;;;;;;;;;;25.10;88.30;;;;;;5058483;28;19960;-89
2022/05/16 13:13:11;;;;;;;4.15;2.55;;;25.10;87.60;;;;;;5060048;28;19928;-92
2022/05/16 13:16:03;;;;;;;9.38;2.42;;;25.20;90.20;;;;;;5081498;28;20053;-96
2022/05/16 13:18:33;;;;;;;2.90;2.53;;;25.40;89.20;;;;;;5053315;28;20056;-91
2022/05/16 13:21:06;;;;;;;5.68;2.75;;;25.40;89.00;;;;;;5063731;28;20040;-90
2022/05/16 13:23:32;;;;;;;2.67;1.95;;;25.30;88.20;;;;;;5067547;28;20063;-96
2022/05/16 13:31:42;;;;;;;6.35;1.88;;;25.00;88.10;;;;;;5069200;28;20140;-90
2022/05/16 13:34:11;;;;;;;1.60;1.50;;;24.90;88.30;;;;;;5065547;28;20037;-88
2022/05/16 13:36:38;;;;;;;3.08;2.20;;;24.90;88.00;;;;;;5056069;28;20067;-91
2022/05/16 13:39:09;;;;;;;2.67;1.95;;;24.40;87.40;;;;;;5062537;28;20102;-91
2022/05/16 13:41:38;;;;;;;6.88;2.75;;;24.90;87.30;;;;;;5056230;28;20049;-90
2022/05/16 13:44:05;;;;;;;4.95;2.25;;;24.80;87.10;;;;;;5059976;28;20036;-90
2022/05/16 13:46:34;;;;;;;3.47;1.70;;;24.80;87.20;;;;;;5048833;28;20052;-91
2022/05/16 13:49:04;;;;;;;4.00;1.90;;;24.70;87.30;;;;;;5064537;28;20037;-92
2022/05/16 13:51:34;;;;;;;3.15;2.78;;;24.70;87.40;;;;;;5052371;28;20056;-88